createdAt,value
2022-09-16T00:00:08.747Z,96.23
2022-09-16T00:01:08.773Z,96.44
2022-09-16T00:02:08.746Z,96.34
2022-09-16T00:03:08.692Z,96.23
2022-09-16T00:04:08.700Z,96.34
2022-09-16T00:05:08.685Z,96.34
2022-09-16T00:06:08.673Z,96.44
2022-09-16T00:07:08.653Z,96.44
2022-09-16T00:08:08.656Z,96.54
2022-09-16T00:09:08.632Z,96.54
2022-09-16T00:10:08.649Z,96.54
2022-09-16T00:11:08.612Z,96.54
2022-09-16T00:12:08.612Z,96.54
2022-09-16T00:13:08.601Z,96.54
2022-09-16T00:14:08.602Z,96.54
2022-09-16T00:15:08.585Z,96.54
2022-09-16T00:16:08.627Z,96.54
2022-09-16T00:17:08.552Z,96.44
2022-09-16T00:18:08.557Z,96.54
2022-09-16T00:19:08.524Z,96.75
2022-09-16T00:20:08.527Z,96.64
2022-09-16T00:21:08.528Z,96.75
2022-09-16T00:22:08.497Z,96.84
2022-09-16T00:23:08.466Z,96.75
2022-09-16T00:24:08.472Z,96.75
2022-09-16T00:25:08.451Z,96.75
2022-09-16T00:26:08.477Z,96.75
2022-09-16T00:27:08.425Z,96.64
2022-09-16T00:28:08.424Z,96.54
2022-09-16T00:29:08.404Z,96.64
2022-09-16T00:30:08.416Z,96.54
2022-09-16T00:31:08.509Z,96.64
2022-09-16T00:32:08.373Z,96.75
2022-09-16T00:33:08.366Z,96.64
2022-09-16T00:34:08.366Z,96.64
2022-09-16T00:35:08.347Z,96.75
2022-09-16T00:36:08.549Z,96.54
2022-09-16T00:37:08.317Z,96.44
2022-09-16T00:38:08.319Z,96.54
2022-09-16T00:39:08.290Z,96.54
2022-09-16T00:40:08.361Z,96.44
2022-09-16T00:41:08.277Z,96.54
2022-09-16T00:42:08.286Z,96.75
2022-09-16T00:43:08.265Z,96.75
2022-09-16T00:44:08.238Z,96.54
2022-09-16T00:45:08.238Z,96.64
2022-09-16T00:46:08.245Z,96.44
2022-09-16T00:47:08.299Z,96.44
2022-09-16T00:48:08.197Z,96.44
2022-09-16T00:49:08.190Z,96.64
2022-09-16T00:50:08.178Z,96.64
2022-09-16T00:51:08.169Z,96.64
2022-09-16T00:52:08.157Z,96.64
2022-09-16T00:53:08.150Z,96.75
2022-09-16T00:54:08.129Z,96.84
2022-09-16T00:55:08.130Z,96.95
2022-09-16T00:56:08.225Z,96.95
2022-09-16T00:57:08.109Z,96.84
2022-09-16T00:58:08.078Z,96.95
2022-09-16T00:59:08.069Z,96.95
2022-09-16T01:00:08.058Z,96.95
2022-09-16T01:01:08.100Z,97.05
2022-09-16T01:02:08.079Z,96.95
2022-09-16T01:03:08.029Z,96.95
2022-09-16T01:04:08.041Z,96.95
2022-09-16T01:05:08.021Z,96.84
2022-09-16T01:06:08.003Z,96.84
2022-09-16T01:07:08.003Z,96.95
2022-09-16T01:08:07.973Z,96.84
2022-09-16T01:09:07.977Z,96.84
2022-09-16T01:10:07.943Z,96.84
2022-09-16T01:11:07.962Z,96.95
2022-09-16T01:12:07.939Z,96.95
2022-09-16T01:13:07.922Z,96.95
2022-09-16T01:14:07.902Z,97.05
2022-09-16T01:15:07.921Z,97.05
2022-09-16T01:16:07.927Z,97.05
2022-09-16T01:17:07.912Z,97.16
2022-09-16T01:18:07.861Z,97.05
2022-09-16T01:19:07.861Z,97.16
2022-09-16T01:20:07.843Z,97.16
2022-09-16T01:21:07.834Z,97.25
2022-09-16T01:22:07.830Z,97.25
2022-09-16T01:23:07.810Z,97.36
2022-09-16T01:24:07.807Z,97.36
2022-09-16T01:25:07.799Z,97.36
2022-09-16T01:26:07.770Z,97.46
2022-09-16T01:27:07.782Z,97.46
2022-09-16T01:28:07.753Z,97.36
2022-09-16T01:29:07.750Z,97.36
2022-09-16T01:30:07.722Z,97.36
2022-09-16T01:31:07.766Z,97.25
2022-09-16T01:32:07.702Z,97.16
2022-09-16T01:33:07.714Z,97.16
2022-09-16T01:34:07.690Z,97.05
2022-09-16T01:35:07.671Z,96.95
2022-09-16T01:36:07.662Z,97.16
2022-09-16T01:37:07.681Z,97.05
2022-09-16T01:38:07.634Z,97.05
2022-09-16T01:39:07.643Z,96.95
2022-09-16T01:40:07.652Z,96.95
2022-09-16T01:41:07.601Z,97.05
2022-09-16T01:42:07.594Z,96.84
2022-09-16T01:43:07.603Z,96.75
2022-09-16T01:44:07.562Z,96.84
2022-09-16T01:45:07.562Z,96.84
2022-09-16T01:46:07.608Z,96.84
2022-09-16T01:47:07.542Z,96.84
2022-09-16T01:48:07.661Z,96.84
2022-09-16T01:49:07.522Z,97.00
2022-09-16T01:50:07.514Z,97.20
2022-09-16T01:51:07.507Z,97.00
2022-09-16T01:52:07.479Z,96.89
2022-09-16T01:53:07.495Z,97.00
2022-09-16T01:54:07.461Z,97.00
2022-09-16T01:55:07.454Z,97.00
2022-09-16T01:56:07.443Z,97.09
2022-09-16T01:57:07.436Z,96.89
2022-09-16T01:58:07.426Z,96.89
2022-09-16T01:59:07.405Z,96.79
2022-09-16T02:00:07.405Z,96.79
2022-09-16T02:01:07.400Z,97.00
2022-09-16T02:02:07.493Z,96.69
2022-09-16T02:03:07.378Z,96.59
2022-09-16T02:04:07.335Z,96.69
2022-09-16T02:05:08.095Z,96.69
2022-09-16T02:06:07.322Z,96.79
2022-09-16T02:07:07.326Z,96.89
2022-09-16T02:08:07.316Z,96.79
2022-09-16T02:09:07.307Z,96.79
2022-09-16T02:10:07.278Z,96.69
2022-09-16T02:11:07.286Z,96.79
2022-09-16T02:12:07.264Z,96.79
2022-09-16T02:13:07.267Z,96.79
2022-09-16T02:14:07.246Z,96.79
2022-09-16T02:15:07.226Z,96.79
2022-09-16T02:16:07.256Z,96.79
2022-09-16T02:17:07.222Z,96.79
2022-09-16T02:18:07.178Z,96.89
2022-09-16T02:19:07.207Z,96.89
2022-09-16T02:20:07.167Z,96.79
2022-09-16T02:21:07.181Z,96.89
2022-09-16T02:22:07.142Z,96.89
2022-09-16T02:23:07.134Z,96.79
2022-09-16T02:24:07.118Z,96.79
2022-09-16T02:25:07.127Z,96.79
2022-09-16T02:26:07.106Z,96.89
2022-09-16T02:27:07.086Z,96.89
2022-09-16T02:28:07.079Z,96.59
2022-09-16T02:29:07.091Z,96.69
2022-09-16T02:30:07.067Z,96.89
2022-09-16T02:31:07.068Z,96.79
2022-09-16T02:32:07.039Z,96.69
2022-09-16T02:33:07.029Z,96.69
2022-09-16T02:34:07.031Z,96.59
2022-09-16T02:35:07.018Z,96.69
2022-09-16T02:36:06.987Z,96.79
2022-09-16T02:37:06.979Z,96.89
2022-09-16T02:38:06.967Z,96.69
2022-09-16T02:39:06.979Z,96.69
2022-09-16T02:40:06.986Z,96.59
2022-09-16T02:41:06.942Z,96.69
2022-09-16T02:42:06.939Z,96.59
2022-09-16T02:43:06.908Z,96.38
2022-09-16T02:44:06.899Z,96.38
2022-09-16T02:45:06.918Z,96.38
2022-09-16T02:46:06.933Z,96.38
2022-09-16T02:47:06.879Z,96.18
2022-09-16T02:48:06.858Z,96.38
2022-09-16T02:49:06.847Z,96.28
2022-09-16T02:50:06.847Z,96.28
2022-09-16T02:51:06.827Z,96.28
2022-09-16T02:52:06.807Z,96.28
2022-09-16T02:53:06.813Z,96.28
2022-09-16T02:54:06.783Z,96.28
2022-09-16T02:55:06.799Z,96.18
2022-09-16T02:56:06.807Z,96.18
2022-09-16T02:57:06.767Z,96.18
2022-09-16T02:58:06.751Z,96.08
2022-09-16T02:59:06.819Z,95.97
2022-09-16T03:00:06.719Z,95.77
2022-09-16T03:01:06.727Z,95.77
2022-09-16T03:02:06.720Z,95.77
2022-09-16T03:03:06.722Z,95.87
2022-09-16T03:04:06.672Z,95.87
2022-09-16T03:05:07.051Z,95.97
2022-09-16T03:06:06.651Z,95.97
2022-09-16T03:07:06.659Z,95.97
2022-09-16T03:08:06.631Z,95.97
2022-09-16T03:09:06.634Z,96.08
2022-09-16T03:10:06.600Z,96.18
2022-09-16T03:11:06.612Z,96.38
2022-09-16T03:12:06.583Z,96.59
2022-09-16T03:13:06.591Z,96.89
2022-09-16T03:14:06.563Z,97.20
2022-09-16T03:15:06.551Z,97.34
2022-09-16T03:16:06.588Z,97.45
2022-09-16T03:17:06.547Z,97.61
2022-09-16T03:18:06.511Z,97.81
2022-09-16T03:19:06.519Z,97.86
2022-09-16T03:20:06.491Z,97.86
2022-09-16T03:21:06.499Z,97.75
2022-09-16T03:22:06.479Z,97.96
2022-09-16T03:23:06.471Z,97.96
2022-09-16T03:24:06.443Z,98.27
2022-09-16T03:25:06.443Z,98.27
2022-09-16T03:26:06.423Z,98.16
2022-09-16T03:27:06.437Z,98.06
2022-09-16T03:28:06.392Z,98.06
2022-09-16T03:29:06.411Z,98.06
2022-09-16T03:30:06.383Z,98.06
2022-09-16T03:31:06.416Z,98.16
2022-09-16T03:32:06.355Z,98.16
2022-09-16T03:33:06.363Z,98.16
2022-09-16T03:34:06.337Z,98.16
2022-09-16T03:35:06.333Z,98.27
2022-09-16T03:36:06.312Z,98.36
2022-09-16T03:38:00.265Z,98.27
2022-09-16T03:39:00.244Z,98.27
2022-09-16T03:40:00.366Z,98.27
2022-09-16T03:41:00.237Z,98.16
2022-09-16T03:42:00.195Z,98.27
2022-09-16T03:43:00.216Z,98.27
2022-09-16T03:44:03.804Z,98.27
2022-09-16T03:45:00.167Z,98.27
2022-09-16T03:46:00.385Z,98.36
2022-09-16T03:47:00.155Z,98.47
2022-09-16T03:48:00.143Z,98.57
2022-09-16T03:49:00.130Z,98.47
2022-09-16T03:50:00.108Z,98.47
2022-09-16T03:51:00.105Z,98.27
2022-09-16T03:52:00.084Z,98.36
2022-09-16T03:53:00.102Z,98.36
2022-09-16T03:54:00.064Z,98.27
2022-09-16T03:55:00.074Z,98.47
2022-09-16T03:56:00.293Z,98.57
2022-09-16T03:57:00.044Z,98.68
2022-09-16T03:58:00.041Z,98.68
2022-09-16T03:59:00.024Z,98.68
2022-09-16T04:00:00.031Z,98.68
2022-09-16T04:00:59.996Z,98.68
2022-09-16T04:02:00.018Z,98.77
2022-09-16T04:03:00.027Z,98.68
2022-09-16T04:03:59.953Z,98.57
2022-09-16T04:04:59.984Z,98.68
2022-09-16T04:05:59.928Z,98.88
2022-09-16T04:06:59.932Z,98.88
2022-09-16T04:07:59.904Z,98.98
2022-09-16T04:08:59.924Z,98.98
2022-09-16T04:09:59.913Z,99.08
2022-09-16T04:10:59.916Z,99.29
2022-09-16T04:11:59.864Z,99.59
2022-09-16T04:12:59.877Z,99.59
2022-09-16T04:13:59.868Z,99.39
2022-09-16T04:15:01.023Z,99.49
2022-09-16T04:15:59.949Z,99.39
2022-09-16T04:16:59.925Z,99.69
2022-09-16T04:17:59.909Z,99.59
2022-09-16T04:18:59.893Z,99.69
2022-09-16T04:19:59.902Z,99.79
2022-09-16T04:20:59.951Z,99.79
2022-09-16T04:21:59.954Z,99.90
2022-09-16T04:22:59.964Z,99.99
2022-09-16T04:23:59.977Z,99.99
2022-09-16T04:25:00.021Z,99.99
2022-09-16T04:26:00.117Z,99.99
2022-09-16T04:26:59.993Z,99.99
2022-09-16T04:27:59.913Z,99.99
2022-09-16T04:28:59.923Z,99.99
2022-09-16T04:29:59.956Z,99.99
2022-09-16T04:31:00.005Z,99.99
2022-09-16T04:31:59.629Z,99.99
2022-09-16T04:32:59.625Z,99.99
2022-09-16T04:33:59.629Z,99.99
2022-09-16T04:34:59.627Z,99.99
2022-09-16T04:35:59.585Z,99.99
2022-09-16T04:36:59.577Z,99.99
2022-09-16T04:37:59.568Z,99.99
2022-09-16T04:38:59.557Z,99.99
2022-09-16T04:40:03.815Z,99.99
2022-09-16T04:41:00.548Z,99.99
2022-09-16T04:41:59.524Z,99.99
2022-09-16T04:42:59.506Z,99.99
2022-09-16T04:43:59.499Z,99.99
2022-09-16T04:44:59.850Z,99.99
2022-09-16T04:45:59.538Z,99.99
2022-09-16T04:46:59.477Z,99.99
2022-09-16T04:47:59.450Z,99.99
2022-09-16T04:48:59.457Z,99.99
2022-09-16T04:49:59.446Z,99.99
2022-09-16T04:50:59.480Z,99.99
2022-09-16T04:51:59.426Z,99.95
2022-09-16T04:52:59.409Z,99.64
2022-09-16T04:53:59.377Z,99.54
2022-09-16T04:54:59.389Z,99.64
2022-09-16T04:55:59.377Z,99.74
2022-09-16T04:56:59.357Z,99.64
2022-09-16T04:57:59.353Z,99.64
2022-09-16T04:58:59.337Z,99.64
2022-09-16T04:59:59.321Z,99.54
2022-09-16T05:00:59.328Z,99.54
2022-09-16T05:01:59.343Z,99.64
2022-09-16T05:02:59.315Z,99.54
2022-09-16T05:03:59.269Z,99.64
2022-09-16T05:05:00.419Z,99.68
2022-09-16T05:05:59.282Z,99.79
2022-09-16T05:06:59.249Z,99.79
2022-09-16T05:07:59.229Z,99.89
2022-09-16T05:08:59.234Z,99.79
2022-09-16T05:09:59.197Z,99.79
2022-09-16T05:10:59.201Z,99.79
2022-09-16T05:11:59.201Z,99.79
2022-09-16T05:12:59.183Z,99.79
2022-09-16T05:13:59.152Z,99.79
2022-09-16T05:15:01.869Z,99.79
2022-09-16T05:15:59.198Z,99.68
2022-09-16T05:16:59.149Z,99.58
2022-09-16T05:17:59.125Z,99.68
2022-09-16T05:18:59.110Z,99.58
2022-09-16T05:19:59.082Z,99.48
2022-09-16T05:20:59.103Z,99.48
2022-09-16T05:21:59.061Z,99.58
2022-09-16T05:22:59.062Z,99.48
2022-09-16T05:23:59.150Z,99.58
2022-09-16T05:24:59.041Z,99.58
2022-09-16T05:25:59.029Z,99.58
2022-09-16T05:26:59.017Z,99.48
2022-09-16T05:27:58.995Z,99.38
2022-09-16T05:28:59.010Z,99.38
2022-09-16T05:29:58.981Z,99.48
2022-09-16T05:30:59.027Z,99.48
2022-09-16T05:31:58.961Z,99.38
2022-09-16T05:32:58.950Z,99.38
2022-09-16T05:33:58.929Z,99.38
2022-09-16T05:34:58.929Z,99.27
2022-09-16T05:35:58.901Z,99.18
2022-09-16T05:36:58.941Z,99.27
2022-09-16T05:37:58.891Z,99.27
2022-09-16T05:39:21.536Z,99.27
2022-09-16T05:39:59.884Z,99.38
2022-09-16T05:40:58.885Z,99.38
2022-09-16T05:41:58.839Z,99.38
2022-09-16T05:42:58.881Z,99.38
2022-09-16T05:43:58.841Z,99.27
2022-09-16T05:44:58.822Z,99.27
2022-09-16T05:45:58.837Z,99.27
2022-09-16T05:46:58.894Z,99.48
2022-09-16T05:47:58.902Z,99.54
2022-09-16T05:48:58.905Z,99.48
2022-09-16T05:49:58.918Z,99.33
2022-09-16T05:50:58.970Z,99.43
2022-09-16T05:51:58.983Z,99.13
2022-09-16T05:52:58.989Z,99.23
2022-09-16T05:53:58.996Z,99.13
2022-09-16T05:54:58.713Z,98.93
2022-09-16T05:55:58.705Z,98.93
2022-09-16T05:57:01.272Z,98.82
2022-09-16T05:57:59.674Z,98.93
2022-09-16T05:58:58.663Z,98.52
2022-09-16T05:59:58.646Z,98.41
2022-09-16T06:00:58.638Z,98.41
2022-09-16T06:01:58.705Z,98.00
2022-09-16T06:02:58.703Z,98.00
2022-09-16T06:03:58.594Z,97.90
2022-09-16T06:04:59.278Z,97.90
2022-09-16T06:05:58.575Z,97.70
2022-09-16T06:06:58.578Z,97.60
2022-09-16T06:07:58.571Z,97.60
2022-09-16T06:08:58.546Z,97.60
2022-09-16T06:09:58.534Z,97.39
2022-09-16T06:10:58.534Z,97.80
2022-09-16T06:12:02.220Z,97.60
2022-09-16T06:12:58.511Z,97.19
2022-09-16T06:13:58.498Z,97.19
2022-09-16T06:14:58.476Z,96.98
2022-09-16T06:15:58.484Z,96.68
2022-09-16T06:16:58.441Z,96.88
2022-09-16T06:18:01.761Z,97.08
2022-09-16T06:18:59.428Z,97.19
2022-09-16T06:19:58.414Z,97.08
2022-09-16T06:20:58.414Z,96.78
2022-09-16T06:21:58.395Z,96.88
2022-09-16T06:22:58.399Z,96.78
2022-09-16T06:23:58.374Z,96.98
2022-09-16T06:24:58.386Z,97.04
2022-09-16T06:25:58.354Z,96.94
2022-09-16T06:26:58.340Z,96.84
2022-09-16T06:27:58.371Z,96.73
2022-09-16T06:28:58.354Z,96.84
2022-09-16T06:29:58.306Z,96.73
2022-09-16T06:30:58.293Z,96.73
2022-09-16T06:31:58.303Z,96.94
2022-09-16T06:32:58.267Z,96.94
2022-09-16T06:33:58.266Z,96.94
2022-09-16T06:34:58.266Z,96.84
2022-09-16T06:35:58.251Z,96.63
2022-09-16T06:36:58.221Z,96.63
2022-09-16T06:37:58.215Z,96.73
2022-09-16T06:38:58.218Z,95.92
2022-09-16T06:39:58.242Z,96.02
2022-09-16T06:40:58.175Z,96.02
2022-09-16T06:41:58.175Z,96.02
2022-09-16T06:43:00.211Z,95.92
2022-09-16T06:43:58.179Z,96.02
2022-09-16T06:44:58.139Z,95.81
2022-09-16T06:45:58.195Z,95.61
2022-09-16T06:46:58.107Z,95.31
2022-09-16T06:47:58.115Z,95.10
2022-09-16T06:49:00.410Z,94.59
2022-09-16T06:49:58.087Z,94.59
2022-09-16T06:50:58.112Z,94.59
2022-09-16T06:51:58.087Z,94.49
2022-09-16T06:52:58.034Z,94.59
2022-09-16T06:53:58.039Z,94.49
2022-09-16T06:54:58.035Z,94.29
2022-09-16T06:55:58.020Z,94.34
2022-09-16T06:56:57.999Z,94.55
2022-09-16T06:57:57.994Z,93.84
2022-09-16T06:58:57.967Z,93.84
2022-09-16T06:59:57.999Z,93.69
2022-09-16T07:00:57.971Z,93.48
2022-09-16T07:01:57.982Z,92.77
2022-09-16T07:02:57.921Z,92.87
2022-09-16T07:03:57.928Z,92.97
2022-09-16T07:04:57.915Z,93.18
2022-09-16T07:05:57.923Z,92.67
2022-09-16T07:07:09.044Z,92.57
2022-09-16T07:07:58.888Z,92.67
2022-09-16T07:08:57.867Z,92.67
2022-09-16T07:09:57.909Z,92.77
2022-09-16T07:10:57.840Z,92.87
2022-09-16T07:11:57.829Z,92.67
2022-09-16T07:12:57.832Z,92.83
2022-09-16T07:13:58.023Z,92.36
2022-09-16T07:14:57.819Z,92.36
2022-09-16T07:16:12.306Z,92.57
2022-09-16T07:16:58.827Z,92.77
2022-09-16T07:17:57.763Z,93.38
2022-09-16T07:19:00.977Z,93.07
2022-09-16T07:19:57.752Z,93.18
2022-09-16T07:20:57.740Z,93.28
2022-09-16T07:21:57.724Z,93.38
2022-09-16T07:22:57.704Z,93.59
2022-09-16T07:23:57.733Z,93.89
2022-09-16T07:24:57.680Z,93.99
2022-09-16T07:25:57.687Z,94.09
2022-09-16T07:26:57.667Z,93.99
2022-09-16T07:27:57.652Z,94.20
2022-09-16T07:28:57.636Z,94.30
2022-09-16T07:30:00.109Z,94.40
2022-09-16T07:30:57.715Z,94.09
2022-09-16T07:31:57.629Z,93.99
2022-09-16T07:32:57.595Z,94.30
2022-09-16T07:34:01.457Z,93.99
2022-09-16T07:34:58.579Z,94.09
2022-09-16T07:35:57.604Z,94.40
2022-09-16T07:36:57.632Z,94.60
2022-09-16T07:37:57.620Z,94.50
2022-09-16T07:38:57.679Z,93.99
2022-09-16T07:39:57.666Z,94.09
2022-09-16T07:40:57.731Z,94.30
2022-09-16T07:41:57.615Z,94.40
2022-09-16T07:42:57.628Z,94.50
2022-09-16T07:43:57.504Z,94.50
2022-09-16T07:44:57.504Z,93.59
2022-09-16T07:45:57.489Z,93.48
2022-09-16T07:46:57.433Z,93.59
2022-09-16T07:47:57.439Z,93.69
2022-09-16T07:48:57.529Z,93.38
2022-09-16T07:49:57.404Z,93.44
2022-09-16T07:50:57.391Z,93.33
2022-09-16T07:51:57.415Z,93.44
2022-09-16T07:52:57.372Z,93.03
2022-09-16T07:53:57.413Z,92.83
2022-09-16T07:54:57.339Z,92.93
2022-09-16T07:55:57.348Z,92.32
2022-09-16T07:56:57.320Z,92.52
2022-09-16T07:57:57.332Z,91.81
2022-09-16T07:58:57.463Z,91.30
2022-09-16T07:59:57.293Z,91.50
2022-09-16T08:01:01.927Z,91.81
2022-09-16T08:01:58.375Z,91.50
2022-09-16T08:02:57.327Z,91.30
2022-09-16T08:03:57.252Z,90.48
2022-09-16T08:04:57.232Z,90.42
2022-09-16T08:05:57.232Z,90.01
2022-09-16T08:06:57.206Z,90.42
2022-09-16T08:07:57.213Z,89.97
2022-09-16T08:08:59.792Z,89.36
2022-09-16T08:09:58.187Z,89.67
2022-09-16T08:10:57.172Z,89.83
2022-09-16T08:11:57.177Z,89.22
2022-09-16T08:12:57.173Z,89.01
2022-09-16T08:13:57.160Z,89.22
2022-09-16T08:14:57.220Z,87.59
2022-09-16T08:15:57.126Z,87.38
2022-09-16T08:16:57.150Z,87.90
2022-09-16T08:17:57.096Z,87.59
2022-09-16T08:18:57.084Z,87.24
2022-09-16T08:19:57.084Z,86.13
2022-09-16T08:20:57.052Z,85.61
2022-09-16T08:21:57.052Z,85.41
2022-09-16T08:22:58.052Z,86.08
2022-09-16T08:23:57.114Z,85.47
2022-09-16T08:24:57.013Z,85.84
2022-09-16T08:25:57.004Z,84.82
2022-09-16T08:27:56.977Z,84.31
2022-09-16T08:29:08.491Z,84.11
2022-09-16T08:29:57.957Z,84.42
2022-09-16T08:30:56.932Z,83.50
2022-09-16T08:31:56.964Z,84.01
2022-09-16T08:32:56.913Z,84.72
2022-09-16T08:33:56.917Z,84.28
2022-09-16T08:34:56.904Z,82.85
2022-09-16T08:35:56.889Z,82.04
2022-09-16T08:36:56.884Z,82.54
2022-09-16T08:37:56.876Z,82.99
2022-09-16T08:38:57.018Z,83.09
2022-09-16T08:39:56.895Z,84.01
2022-09-16T08:40:56.837Z,83.29
2022-09-16T08:41:56.845Z,83.26
2022-09-16T08:42:56.805Z,83.56
2022-09-16T08:43:56.797Z,82.85
2022-09-16T08:44:56.809Z,82.51
2022-09-16T08:45:56.816Z,81.90
2022-09-16T08:46:56.769Z,82.10
2022-09-16T08:47:56.745Z,82.00
2022-09-16T08:48:56.746Z,82.00
2022-09-16T08:49:56.749Z,81.79
2022-09-16T08:50:56.717Z,82.17
2022-09-16T08:51:56.711Z,81.76
2022-09-16T08:52:56.700Z,81.56
2022-09-16T08:53:56.697Z,81.76
2022-09-16T08:54:56.697Z,82.23
2022-09-16T08:55:56.665Z,79.90
2022-09-16T08:56:56.682Z,80.03
2022-09-16T08:57:56.639Z,80.84
2022-09-16T08:58:56.625Z,80.54
2022-09-16T08:59:56.656Z,80.54
2022-09-16T09:00:56.658Z,81.25
2022-09-16T09:01:57.077Z,81.82
2022-09-16T09:02:56.760Z,81.11
2022-09-16T09:03:56.569Z,80.80
2022-09-16T09:04:56.573Z,80.80
2022-09-16T09:05:56.550Z,81.27
2022-09-16T09:06:56.528Z,79.65
2022-09-16T09:07:56.537Z,78.13
2022-09-16T09:08:56.577Z,78.74
2022-09-16T09:09:56.677Z,78.23
2022-09-16T09:10:56.483Z,78.30
2022-09-16T09:11:57.240Z,78.19
2022-09-16T09:12:57.181Z,77.28
2022-09-16T09:13:56.458Z,76.06
2022-09-16T09:14:56.461Z,76.40
2022-09-16T09:15:56.429Z,76.37
2022-09-16T09:16:56.417Z,76.78
2022-09-16T09:17:56.426Z,75.66
2022-09-16T09:18:56.390Z,75.52
2022-09-16T09:19:56.390Z,75.12
2022-09-16T09:20:56.390Z,75.25
2022-09-16T09:21:56.372Z,75.19
2022-09-16T09:22:56.357Z,75.90
2022-09-16T09:23:56.370Z,76.06
2022-09-16T09:24:57.087Z,75.96
2022-09-16T09:25:56.330Z,75.96
2022-09-16T09:26:56.313Z,75.76
2022-09-16T09:27:56.310Z,74.74
2022-09-16T09:28:56.281Z,74.74
2022-09-16T09:29:56.273Z,75.15
2022-09-16T09:30:56.282Z,72.89
2022-09-16T09:31:56.378Z,68.12
2022-09-16T09:32:56.305Z,67.85
2022-09-16T09:33:56.233Z,68.56
2022-09-16T09:34:56.202Z,68.70
2022-09-16T09:35:56.242Z,68.90
2022-09-16T09:36:56.201Z,70.21
2022-09-16T09:37:56.182Z,69.57
2022-09-16T09:38:56.163Z,69.88
2022-09-16T09:39:56.269Z,69.24
2022-09-16T09:40:56.148Z,69.31
2022-09-16T09:41:56.158Z,69.10
2022-09-16T09:42:56.135Z,66.47
2022-09-16T09:43:56.163Z,66.03
2022-09-16T09:44:58.439Z,65.25
2022-09-16T09:45:57.130Z,66.64
2022-09-16T09:46:56.095Z,66.13
2022-09-16T09:47:56.082Z,65.22
2022-09-16T09:48:56.053Z,65.93
2022-09-16T09:49:56.046Z,66.47
2022-09-16T09:50:56.036Z,66.88
2022-09-16T09:51:56.034Z,67.08
2022-09-16T09:52:56.014Z,67.68
2022-09-16T09:53:56.005Z,68.19
2022-09-16T09:54:56.010Z,67.55
2022-09-16T09:55:55.985Z,67.35
2022-09-16T09:56:55.973Z,67.62
2022-09-16T09:57:55.969Z,66.81
2022-09-16T09:58:55.975Z,67.22
2022-09-16T09:59:55.951Z,66.81
2022-09-16T10:00:55.984Z,66.41
2022-09-16T10:01:55.957Z,67.29
2022-09-16T10:02:56.586Z,66.20
2022-09-16T10:03:55.898Z,65.59
2022-09-16T10:04:55.873Z,65.59
2022-09-16T10:05:55.866Z,66.24
2022-09-16T10:06:55.958Z,67.05
2022-09-16T10:07:55.850Z,67.45
2022-09-16T10:08:55.820Z,67.82
2022-09-16T10:09:55.833Z,66.61
2022-09-16T10:10:55.806Z,68.10
2022-09-16T10:11:55.828Z,66.85
2022-09-16T10:12:55.814Z,65.84
2022-09-16T10:13:55.881Z,65.33
2022-09-16T10:14:55.777Z,64.35
2022-09-16T10:15:55.976Z,64.48
2022-09-16T10:16:55.738Z,65.39
2022-09-16T10:17:55.746Z,64.79
2022-09-16T10:18:55.718Z,65.29
2022-09-16T10:19:55.713Z,64.89
2022-09-16T10:20:55.689Z,65.39
2022-09-16T10:21:55.693Z,65.90
2022-09-16T10:22:56.400Z,65.19
2022-09-16T10:23:55.657Z,64.96
2022-09-16T10:24:55.658Z,65.06
2022-09-16T10:25:55.646Z,64.73
2022-09-16T10:26:55.625Z,63.81
2022-09-16T10:27:55.637Z,65.16
2022-09-16T10:28:55.700Z,65.50
2022-09-16T10:29:55.606Z,66.07
2022-09-16T10:30:55.598Z,64.86
2022-09-16T10:31:55.609Z,65.53
2022-09-16T10:32:55.581Z,65.23
2022-09-16T10:33:55.567Z,64.39
2022-09-16T10:34:55.541Z,62.98
2022-09-16T10:35:55.529Z,62.19
2022-09-16T10:36:55.514Z,62.10
2022-09-16T10:37:55.513Z,61.36
2022-09-16T10:38:55.583Z,61.90
2022-09-16T10:39:55.504Z,62.43
2022-09-16T10:40:55.470Z,62.93
2022-09-16T10:41:55.470Z,63.84
2022-09-16T10:42:55.462Z,64.15
2022-09-16T10:43:55.430Z,64.15
2022-09-16T10:44:55.541Z,65.03
2022-09-16T10:45:55.478Z,63.92
2022-09-16T10:46:55.490Z,63.71
2022-09-16T10:47:55.431Z,64.15
2022-09-16T10:48:55.434Z,65.87
2022-09-16T10:49:55.649Z,66.27
2022-09-16T10:50:55.445Z,66.27
2022-09-16T10:51:55.474Z,66.27
2022-09-16T10:52:55.453Z,66.58
2022-09-16T10:53:55.528Z,66.20
2022-09-16T10:54:55.562Z,66.41
2022-09-16T10:55:55.445Z,66.47
2022-09-16T10:56:55.542Z,66.47
2022-09-16T10:57:55.509Z,66.07
2022-09-16T10:58:55.549Z,65.64
2022-09-16T10:59:55.462Z,64.09
2022-09-16T11:00:55.409Z,64.90
2022-09-16T11:01:55.619Z,62.74
2022-09-16T11:02:55.241Z,62.47
2022-09-16T11:03:55.213Z,62.47
2022-09-16T11:04:55.581Z,63.18
2022-09-16T11:05:55.182Z,63.89
2022-09-16T11:06:55.182Z,64.32
2022-09-16T11:07:55.176Z,65.23
2022-09-16T11:08:55.250Z,65.06
2022-09-16T11:09:55.266Z,66.27
2022-09-16T11:10:55.173Z,66.67
2022-09-16T11:11:55.125Z,66.78
2022-09-16T11:12:55.133Z,66.17
2022-09-16T11:13:55.105Z,65.67
2022-09-16T11:14:55.153Z,65.77
2022-09-16T11:15:55.166Z,65.97
2022-09-16T11:16:55.085Z,65.94
2022-09-16T11:17:55.047Z,66.55
2022-09-16T11:18:55.044Z,65.61
2022-09-16T11:19:55.051Z,65.30
2022-09-16T11:20:55.018Z,65.00
2022-09-16T11:21:54.997Z,65.00
2022-09-16T11:22:54.997Z,64.67
2022-09-16T11:23:54.986Z,60.75
2022-09-16T11:24:54.980Z,61.25
2022-09-16T11:25:54.965Z,60.65
2022-09-16T11:26:54.970Z,61.76
2022-09-16T11:27:54.933Z,61.25
2022-09-16T11:28:54.978Z,60.22
2022-09-16T11:29:54.919Z,59.31
2022-09-16T11:30:54.905Z,59.81
2022-09-16T11:31:54.944Z,59.31
2022-09-16T11:32:55.873Z,59.38
2022-09-16T11:33:54.873Z,58.98
2022-09-16T11:34:54.867Z,59.38
2022-09-16T11:35:54.867Z,58.67
2022-09-16T11:36:54.838Z,59.61
2022-09-16T11:37:54.817Z,60.32
2022-09-16T11:38:54.818Z,60.22
2022-09-16T11:39:54.867Z,60.85
2022-09-16T11:40:54.822Z,61.33
2022-09-16T11:41:54.780Z,61.53
2022-09-16T11:42:54.778Z,60.82
2022-09-16T11:43:54.755Z,60.72
2022-09-16T11:44:54.750Z,59.51
2022-09-16T11:45:54.754Z,59.41
2022-09-16T11:46:54.806Z,59.81
2022-09-16T11:47:54.718Z,61.80
2022-09-16T11:48:54.731Z,59.86
2022-09-16T11:49:54.692Z,59.56
2022-09-16T11:50:54.719Z,58.14
2022-09-16T11:51:54.659Z,57.94
2022-09-16T11:52:56.526Z,57.06
2022-09-16T11:53:55.661Z,56.56
2022-09-16T11:54:54.630Z,56.58
2022-09-16T11:55:54.640Z,56.98
2022-09-16T11:56:54.611Z,57.11
2022-09-16T11:57:54.589Z,57.14
2022-09-16T11:58:54.602Z,57.75
2022-09-16T11:59:54.570Z,57.85
2022-09-16T12:00:54.586Z,57.62
2022-09-16T12:01:54.620Z,58.73
2022-09-16T12:02:54.581Z,59.41
2022-09-16T12:03:54.535Z,59.71
2022-09-16T12:04:54.538Z,59.58
2022-09-16T12:05:54.531Z,58.45
2022-09-16T12:06:54.518Z,58.92
2022-09-16T12:07:54.519Z,57.71
2022-09-16T12:08:54.475Z,57.68
2022-09-16T12:09:54.454Z,57.61
2022-09-16T12:10:54.455Z,57.51
2022-09-16T12:11:54.602Z,56.81
2022-09-16T12:12:54.450Z,57.10
2022-09-16T12:14:05.524Z,56.43
2022-09-16T12:14:55.414Z,57.56
2022-09-16T12:15:54.451Z,57.79
2022-09-16T12:16:54.556Z,58.80
2022-09-16T12:17:54.543Z,59.81
2022-09-16T12:18:54.567Z,60.42
2022-09-16T12:19:54.566Z,61.40
2022-09-16T12:20:54.570Z,62.34
2022-09-16T12:21:57.827Z,62.74
2022-09-16T12:22:54.336Z,63.96
2022-09-16T12:23:54.316Z,65.50
2022-09-16T12:24:54.307Z,66.31
2022-09-16T12:25:54.295Z,67.43
2022-09-16T12:26:54.716Z,66.99
2022-09-16T12:27:54.254Z,66.61
2022-09-16T12:28:54.261Z,68.20
2022-09-16T12:29:54.227Z,67.80
2022-09-16T12:30:54.281Z,67.19
2022-09-16T12:31:54.539Z,66.78
2022-09-16T12:32:54.209Z,66.48
2022-09-16T12:33:54.282Z,66.82
2022-09-16T12:34:54.187Z,67.32
2022-09-16T12:35:54.178Z,67.15
2022-09-16T12:36:54.214Z,67.96
2022-09-16T12:37:54.149Z,68.80
2022-09-16T12:38:54.139Z,69.41
2022-09-16T12:39:54.187Z,68.60
2022-09-16T12:40:54.150Z,67.79
2022-09-16T12:41:54.119Z,68.50
2022-09-16T12:42:54.093Z,69.04
2022-09-16T12:43:59.011Z,69.74
2022-09-16T12:44:55.270Z,70.52
2022-09-16T12:45:54.061Z,69.68
2022-09-16T12:46:54.115Z,69.04
2022-09-16T12:47:54.053Z,68.94
2022-09-16T12:48:54.049Z,68.30
2022-09-16T12:49:54.012Z,68.27
2022-09-16T12:50:54.012Z,67.26
2022-09-16T12:51:54.281Z,65.34
2022-09-16T12:52:54.020Z,66.41
2022-09-16T12:53:54.054Z,66.82